sensor_id;sensor_type;location;lat;lon;timestamp;temperature;humidity
25024;DHT22;13033;50.936;5.334;2024-01-30T00:01:29;10.30;99.90
25024;DHT22;13033;50.936;5.334;2024-01-30T00:03:55;10.20;99.90
25024;DHT22;13033;50.936;5.334;2024-01-30T00:06:21;10.10;99.90
25024;DHT22;13033;50.936;5.334;2024-01-30T00:08:46;10.00;99.90
25024;DHT22;13033;50.936;5.334;2024-01-30T00:11:15;9.90;99.90
25024;DHT22;13033;50.936;5.334;2024-01-30T00:13:41;9.90;99.90
25024;DHT22;13033;50.936;5.334;2024-01-30T00:16:07;9.90;99.90
25024;DHT22;13033;50.936;5.334;2024-01-30T00:18:34;9.90;99.90
25024;DHT22;13033;50.936;5.334;2024-01-30T00:21:00;9.90;99.90
25024;DHT22;13033;50.936;5.334;2024-01-30T00:23:26;9.90;99.90
25024;DHT22;13033;50.936;5.334;2024-01-30T00:25:51;9.80;99.90
25024;DHT22;13033;50.936;5.334;2024-01-30T00:28:17;9.80;99.90
25024;DHT22;13033;50.936;5.334;2024-01-30T00:30:43;9.90;99.90
25024;DHT22;13033;50.936;5.334;2024-01-30T00:33:09;9.90;99.90
25024;DHT22;13033;50.936;5.334;2024-01-30T00:35:35;9.90;99.90
25024;DHT22;13033;50.936;5.334;2024-01-30T00:38:00;10.00;99.90
25024;DHT22;13033;50.936;5.334;2024-01-30T00:40:26;10.10;99.90
25024;DHT22;13033;50.936;5.334;2024-01-30T00:42:52;10.00;99.90
25024;DHT22;13033;50.936;5.334;2024-01-30T00:45:18;10.10;99.90
25024;DHT22;13033;50.936;5.334;2024-01-30T00:47:44;10.20;99.90
25024;DHT22;13033;50.936;5.334;2024-01-30T00:50:10;10.20;99.90
25024;DHT22;13033;50.936;5.334;2024-01-30T00:52:36;10.20;99.90
25024;DHT22;13033;50.936;5.334;2024-01-30T00:55:02;10.20;99.90
25024;DHT22;13033;50.936;5.334;2024-01-30T00:57:29;10.10;99.90
25024;DHT22;13033;50.936;5.334;2024-01-30T00:59:54;10.10;99.90
25024;DHT22;13033;50.936;5.334;2024-01-30T01:02:20;10.10;99.90
25024;DHT22;13033;50.936;5.334;2024-01-30T01:04:46;10.10;99.90
25024;DHT22;13033;50.936;5.334;2024-01-30T01:07:12;9.90;99.90
25024;DHT22;13033;50.936;5.334;2024-01-30T01:09:37;9.90;99.90
25024;DHT22;13033;50.936;5.334;2024-01-30T01:12:04;9.90;99.90
25024;DHT22;13033;50.936;5.334;2024-01-30T01:14:30;9.90;99.90
25024;DHT22;13033;50.936;5.334;2024-01-30T01:16:56;9.90;99.90
25024;DHT22;13033;50.936;5.334;2024-01-30T01:19:22;9.90;99.90
25024;DHT22;13033;50.936;5.334;2024-01-30T01:21:48;9.90;99.90
25024;DHT22;13033;50.936;5.334;2024-01-30T01:24:13;9.80;99.90
25024;DHT22;13033;50.936;5.334;2024-01-30T01:26:39;9.80;99.90
25024;DHT22;13033;50.936;5.334;2024-01-30T01:29:06;9.80;99.90
25024;DHT22;13033;50.936;5.334;2024-01-30T01:31:38;9.80;99.90
25024;DHT22;13033;50.936;5.334;2024-01-30T01:34:13;9.90;99.90
25024;DHT22;13033;50.936;5.334;2024-01-30T01:36:39;9.90;99.90
25024;DHT22;13033;50.936;5.334;2024-01-30T01:39:05;9.90;99.90
25024;DHT22;13033;50.936;5.334;2024-01-30T01:41:34;10.00;99.90
25024;DHT22;13033;50.936;5.334;2024-01-30T01:44:00;10.00;99.90
25024;DHT22;13033;50.936;5.334;2024-01-30T01:46:32;10.00;99.90
25024;DHT22;13033;50.936;5.334;2024-01-30T01:48:58;10.00;99.90
25024;DHT22;13033;50.936;5.334;2024-01-30T01:51:25;9.90;99.90
25024;DHT22;13033;50.936;5.334;2024-01-30T01:53:53;9.80;99.90
25024;DHT22;13033;50.936;5.334;2024-01-30T01:56:19;9.80;99.90
25024;DHT22;13033;50.936;5.334;2024-01-30T01:58:46;9.80;99.90
25024;DHT22;13033;50.936;5.334;2024-01-30T02:01:13;9.90;99.90
25024;DHT22;13033;50.936;5.334;2024-01-30T02:03:40;9.90;99.90
25024;DHT22;13033;50.936;5.334;2024-01-30T02:06:06;10.00;99.90
25024;DHT22;13033;50.936;5.334;2024-01-30T02:08:32;10.00;99.90
25024;DHT22;13033;50.936;5.334;2024-01-30T02:10:59;9.90;99.90
25024;DHT22;13033;50.936;5.334;2024-01-30T02:13:25;9.90;99.90
25024;DHT22;13033;50.936;5.334;2024-01-30T02:15:54;9.90;99.90
25024;DHT22;13033;50.936;5.334;2024-01-30T02:18:20;9.90;99.90
25024;DHT22;13033;50.936;5.334;2024-01-30T02:20:49;9.90;99.90
25024;DHT22;13033;50.936;5.334;2024-01-30T02:23:16;10.10;99.90
25024;DHT22;13033;50.936;5.334;2024-01-30T02:25:43;10.20;99.90
25024;DHT22;13033;50.936;5.334;2024-01-30T02:28:15;10.10;99.90
25024;DHT22;13033;50.936;5.334;2024-01-30T02:30:43;10.00;99.90
25024;DHT22;13033;50.936;5.334;2024-01-30T02:33:09;10.10;99.90
25024;DHT22;13033;50.936;5.334;2024-01-30T02:35:34;10.20;99.90
25024;DHT22;13033;50.936;5.334;2024-01-30T02:38:01;10.20;99.90
25024;DHT22;13033;50.936;5.334;2024-01-30T02:40:26;10.20;99.90
25024;DHT22;13033;50.936;5.334;2024-01-30T02:42:52;10.20;99.90
25024;DHT22;13033;50.936;5.334;2024-01-30T02:45:18;10.20;99.90
25024;DHT22;13033;50.936;5.334;2024-01-30T02:47:45;10.30;99.90
25024;DHT22;13033;50.936;5.334;2024-01-30T02:50:11;10.20;99.90
25024;DHT22;13033;50.936;5.334;2024-01-30T02:52:37;10.30;99.90
25024;DHT22;13033;50.936;5.334;2024-01-30T02:55:03;10.30;99.90
25024;DHT22;13033;50.936;5.334;2024-01-30T02:57:29;10.30;99.90
25024;DHT22;13033;50.936;5.334;2024-01-30T02:59:55;10.40;99.90
25024;DHT22;13033;50.936;5.334;2024-01-30T03:02:20;10.50;99.90
25024;DHT22;13033;50.936;5.334;2024-01-30T03:04:47;10.50;99.90
25024;DHT22;13033;50.936;5.334;2024-01-30T03:07:13;10.50;99.90
25024;DHT22;13033;50.936;5.334;2024-01-30T03:09:39;10.50;99.90
25024;DHT22;13033;50.936;5.334;2024-01-30T03:12:06;10.60;99.90
25024;DHT22;13033;50.936;5.334;2024-01-30T03:14:32;10.60;99.90
25024;DHT22;13033;50.936;5.334;2024-01-30T03:16:58;10.50;99.90
25024;DHT22;13033;50.936;5.334;2024-01-30T03:19:24;10.60;99.90
25024;DHT22;13033;50.936;5.334;2024-01-30T03:21:50;10.50;99.90
25024;DHT22;13033;50.936;5.334;2024-01-30T03:24:16;10.50;99.90
25024;DHT22;13033;50.936;5.334;2024-01-30T03:26:43;10.60;99.90
25024;DHT22;13033;50.936;5.334;2024-01-30T03:29:08;10.70;99.90
25024;DHT22;13033;50.936;5.334;2024-01-30T03:31:34;10.70;99.90
25024;DHT22;13033;50.936;5.334;2024-01-30T03:34:01;10.70;99.90
25024;DHT22;13033;50.936;5.334;2024-01-30T03:36:27;10.60;99.90
25024;DHT22;13033;50.936;5.334;2024-01-30T03:38:53;10.30;99.90
25024;DHT22;13033;50.936;5.334;2024-01-30T03:41:19;10.30;99.90
25024;DHT22;13033;50.936;5.334;2024-01-30T03:43:47;10.30;99.90
25024;DHT22;13033;50.936;5.334;2024-01-30T03:46:13;10.20;99.90
25024;DHT22;13033;50.936;5.334;2024-01-30T03:48:39;10.20;99.90
25024;DHT22;13033;50.936;5.334;2024-01-30T03:51:05;10.20;99.90
25024;DHT22;13033;50.936;5.334;2024-01-30T03:53:31;10.20;99.90
25024;DHT22;13033;50.936;5.334;2024-01-30T03:55:57;10.20;99.90
25024;DHT22;13033;50.936;5.334;2024-01-30T03:58:22;10.20;99.90
25024;DHT22;13033;50.936;5.334;2024-01-30T04:00:48;10.20;99.90
25024;DHT22;13033;50.936;5.334;2024-01-30T04:03:14;10.20;99.90
25024;DHT22;13033;50.936;5.334;2024-01-30T04:05:41;10.10;99.90
25024;DHT22;13033;50.936;5.334;2024-01-30T04:08:07;10.00;99.90
25024;DHT22;13033;50.936;5.334;2024-01-30T04:10:33;10.00;99.90
25024;DHT22;13033;50.936;5.334;2024-01-30T04:12:59;10.00;99.90
25024;DHT22;13033;50.936;5.334;2024-01-30T04:15:25;10.00;99.90
25024;DHT22;13033;50.936;5.334;2024-01-30T04:17:51;10.10;99.90
25024;DHT22;13033;50.936;5.334;2024-01-30T04:20:17;10.00;99.90
25024;DHT22;13033;50.936;5.334;2024-01-30T04:22:43;10.00;99.90
25024;DHT22;13033;50.936;5.334;2024-01-30T04:25:10;10.10;99.90
25024;DHT22;13033;50.936;5.334;2024-01-30T04:27:35;10.20;99.90
25024;DHT22;13033;50.936;5.334;2024-01-30T04:30:01;10.20;99.90
25024;DHT22;13033;50.936;5.334;2024-01-30T04:32:27;10.20;99.90
25024;DHT22;13033;50.936;5.334;2024-01-30T04:34:52;10.20;99.90
25024;DHT22;13033;50.936;5.334;2024-01-30T04:37:18;10.30;99.90
25024;DHT22;13033;50.936;5.334;2024-01-30T04:39:44;10.30;99.90
25024;DHT22;13033;50.936;5.334;2024-01-30T04:42:09;10.20;99.90
25024;DHT22;13033;50.936;5.334;2024-01-30T04:44:35;10.20;99.90
25024;DHT22;13033;50.936;5.334;2024-01-30T04:47:01;10.20;99.90
25024;DHT22;13033;50.936;5.334;2024-01-30T04:49:27;10.30;99.90
25024;DHT22;13033;50.936;5.334;2024-01-30T04:51:54;10.30;99.90
25024;DHT22;13033;50.936;5.334;2024-01-30T04:54:20;10.30;99.90
25024;DHT22;13033;50.936;5.334;2024-01-30T04:56:45;10.20;99.90
25024;DHT22;13033;50.936;5.334;2024-01-30T04:59:12;10.10;99.90
25024;DHT22;13033;50.936;5.334;2024-01-30T05:01:37;10.10;99.90
25024;DHT22;13033;50.936;5.334;2024-01-30T05:04:07;10.00;99.90
25024;DHT22;13033;50.936;5.334;2024-01-30T05:06:33;10.20;99.90
25024;DHT22;13033;50.936;5.334;2024-01-30T05:08:59;10.20;99.90
25024;DHT22;13033;50.936;5.334;2024-01-30T05:11:24;10.30;99.90
25024;DHT22;13033;50.936;5.334;2024-01-30T05:13:50;10.20;99.90
25024;DHT22;13033;50.936;5.334;2024-01-30T05:16:16;10.20;99.90
25024;DHT22;13033;50.936;5.334;2024-01-30T05:18:41;10.20;99.90
25024;DHT22;13033;50.936;5.334;2024-01-30T05:21:07;10.20;99.90
25024;DHT22;13033;50.936;5.334;2024-01-30T05:23:33;10.30;99.90
25024;DHT22;13033;50.936;5.334;2024-01-30T05:25:59;10.20;99.90
25024;DHT22;13033;50.936;5.334;2024-01-30T05:28:26;10.30;99.90
25024;DHT22;13033;50.936;5.334;2024-01-30T05:30:52;10.30;99.90
25024;DHT22;13033;50.936;5.334;2024-01-30T05:33:18;10.40;99.90
25024;DHT22;13033;50.936;5.334;2024-01-30T05:35:43;10.40;99.90
25024;DHT22;13033;50.936;5.334;2024-01-30T05:38:11;10.30;99.90
25024;DHT22;13033;50.936;5.334;2024-01-30T05:40:38;10.50;99.90
25024;DHT22;13033;50.936;5.334;2024-01-30T05:43:03;10.40;99.90
25024;DHT22;13033;50.936;5.334;2024-01-30T05:45:29;10.40;99.90
25024;DHT22;13033;50.936;5.334;2024-01-30T05:47:55;10.40;99.90
25024;DHT22;13033;50.936;5.334;2024-01-30T05:50:20;10.50;99.90
25024;DHT22;13033;50.936;5.334;2024-01-30T05:52:48;10.50;99.90
25024;DHT22;13033;50.936;5.334;2024-01-30T05:55:14;10.50;99.90
25024;DHT22;13033;50.936;5.334;2024-01-30T05:57:40;10.50;99.90
25024;DHT22;13033;50.936;5.334;2024-01-30T06:00:06;10.30;99.90
25024;DHT22;13033;50.936;5.334;2024-01-30T06:02:32;10.30;99.90
25024;DHT22;13033;50.936;5.334;2024-01-30T06:04:58;10.40;99.90
25024;DHT22;13033;50.936;5.334;2024-01-30T06:07:24;10.50;99.90
25024;DHT22;13033;50.936;5.334;2024-01-30T06:09:50;10.40;99.90
25024;DHT22;13033;50.936;5.334;2024-01-30T06:12:15;10.60;99.90
25024;DHT22;13033;50.936;5.334;2024-01-30T06:14:41;10.80;99.90
25024;DHT22;13033;50.936;5.334;2024-01-30T06:17:08;10.80;99.90
25024;DHT22;13033;50.936;5.334;2024-01-30T06:19:34;10.80;99.90
25024;DHT22;13033;50.936;5.334;2024-01-30T06:22:00;10.80;99.90
25024;DHT22;13033;50.936;5.334;2024-01-30T06:24:25;10.80;99.90
25024;DHT22;13033;50.936;5.334;2024-01-30T06:26:51;10.80;99.90
25024;DHT22;13033;50.936;5.334;2024-01-30T06:29:17;10.80;99.90
25024;DHT22;13033;50.936;5.334;2024-01-30T06:31:43;10.80;99.90
25024;DHT22;13033;50.936;5.334;2024-01-30T06:34:09;10.80;99.90
25024;DHT22;13033;50.936;5.334;2024-01-30T06:36:35;10.70;99.90
25024;DHT22;13033;50.936;5.334;2024-01-30T06:39:02;10.70;99.90
25024;DHT22;13033;50.936;5.334;2024-01-30T06:41:28;10.60;99.90
25024;DHT22;13033;50.936;5.334;2024-01-30T06:43:54;10.60;99.90
25024;DHT22;13033;50.936;5.334;2024-01-30T06:46:19;10.60;99.90
25024;DHT22;13033;50.936;5.334;2024-01-30T06:48:45;10.70;99.90
25024;DHT22;13033;50.936;5.334;2024-01-30T06:51:11;10.80;99.90
25024;DHT22;13033;50.936;5.334;2024-01-30T06:53:38;10.70;99.90
25024;DHT22;13033;50.936;5.334;2024-01-30T06:56:04;10.80;99.90
25024;DHT22;13033;50.936;5.334;2024-01-30T06:58:30;10.60;99.90
25024;DHT22;13033;50.936;5.334;2024-01-30T07:00:56;10.60;99.90
25024;DHT22;13033;50.936;5.334;2024-01-30T07:03:22;10.60;99.90
25024;DHT22;13033;50.936;5.334;2024-01-30T07:05:48;10.70;99.90
25024;DHT22;13033;50.936;5.334;2024-01-30T07:08:15;10.80;99.90
25024;DHT22;13033;50.936;5.334;2024-01-30T07:10:43;10.80;99.90
25024;DHT22;13033;50.936;5.334;2024-01-30T07:13:10;10.70;99.90
25024;DHT22;13033;50.936;5.334;2024-01-30T07:15:35;10.60;99.90
25024;DHT22;13033;50.936;5.334;2024-01-30T07:18:02;10.70;99.90
25024;DHT22;13033;50.936;5.334;2024-01-30T07:20:28;10.70;99.90
25024;DHT22;13033;50.936;5.334;2024-01-30T07:22:56;10.70;99.90
25024;DHT22;13033;50.936;5.334;2024-01-30T07:25:21;10.60;99.90
25024;DHT22;13033;50.936;5.334;2024-01-30T07:27:54;10.80;99.90
25024;DHT22;13033;50.936;5.334;2024-01-30T07:30:20;10.90;99.90
25024;DHT22;13033;50.936;5.334;2024-01-30T07:32:47;10.90;99.90
25024;DHT22;13033;50.936;5.334;2024-01-30T07:35:13;10.80;99.90
25024;DHT22;13033;50.936;5.334;2024-01-30T07:37:39;10.90;99.90
25024;DHT22;13033;50.936;5.334;2024-01-30T07:40:05;10.90;99.90
25024;DHT22;13033;50.936;5.334;2024-01-30T07:42:32;11.00;99.90
25024;DHT22;13033;50.936;5.334;2024-01-30T07:44:57;11.10;99.90
25024;DHT22;13033;50.936;5.334;2024-01-30T07:47:23;11.30;99.90
25024;DHT22;13033;50.936;5.334;2024-01-30T07:49:49;11.30;99.90
25024;DHT22;13033;50.936;5.334;2024-01-30T07:52:15;11.20;99.90
25024;DHT22;13033;50.936;5.334;2024-01-30T07:54:50;11.30;99.90
25024;DHT22;13033;50.936;5.334;2024-01-30T07:57:16;11.40;99.90
25024;DHT22;13033;50.936;5.334;2024-01-30T07:59:45;11.40;99.90
25024;DHT22;13033;50.936;5.334;2024-01-30T08:02:14;11.40;99.90
25024;DHT22;13033;50.936;5.334;2024-01-30T08:04:39;11.50;99.90
25024;DHT22;13033;50.936;5.334;2024-01-30T08:07:05;11.40;99.90
25024;DHT22;13033;50.936;5.334;2024-01-30T08:09:31;11.50;99.90
25024;DHT22;13033;50.936;5.334;2024-01-30T08:11:57;11.40;99.90
25024;DHT22;13033;50.936;5.334;2024-01-30T08:14:23;11.30;99.90
25024;DHT22;13033;50.936;5.334;2024-01-30T08:16:49;11.30;99.90
25024;DHT22;13033;50.936;5.334;2024-01-30T08:19:15;11.40;99.90
25024;DHT22;13033;50.936;5.334;2024-01-30T08:21:40;11.30;99.90
25024;DHT22;13033;50.936;5.334;2024-01-30T08:24:07;11.30;99.90
25024;DHT22;13033;50.936;5.334;2024-01-30T08:26:33;11.40;99.90
25024;DHT22;13033;50.936;5.334;2024-01-30T08:28:59;11.50;99.90
25024;DHT22;13033;50.936;5.334;2024-01-30T08:31:25;11.60;99.90
25024;DHT22;13033;50.936;5.334;2024-01-30T08:33:51;11.50;99.90
25024;DHT22;13033;50.936;5.334;2024-01-30T08:36:17;11.70;99.90
25024;DHT22;13033;50.936;5.334;2024-01-30T08:38:43;11.80;99.90
25024;DHT22;13033;50.936;5.334;2024-01-30T08:41:08;11.80;99.90
25024;DHT22;13033;50.936;5.334;2024-01-30T08:43:34;11.80;99.90
25024;DHT22;13033;50.936;5.334;2024-01-30T08:46:00;11.80;99.90
25024;DHT22;13033;50.936;5.334;2024-01-30T08:48:26;11.90;99.90
25024;DHT22;13033;50.936;5.334;2024-01-30T08:50:52;11.90;99.90
25024;DHT22;13033;50.936;5.334;2024-01-30T08:53:18;11.90;99.90
25024;DHT22;13033;50.936;5.334;2024-01-30T08:55:44;11.90;99.90
25024;DHT22;13033;50.936;5.334;2024-01-30T08:58:10;11.80;99.90
25024;DHT22;13033;50.936;5.334;2024-01-30T09:00:36;11.80;99.90
25024;DHT22;13033;50.936;5.334;2024-01-30T09:03:01;11.90;99.90
25024;DHT22;13033;50.936;5.334;2024-01-30T09:05:27;12.10;99.90
25024;DHT22;13033;50.936;5.334;2024-01-30T09:07:53;12.10;99.90
25024;DHT22;13033;50.936;5.334;2024-01-30T09:10:19;12.00;99.90
25024;DHT22;13033;50.936;5.334;2024-01-30T09:12:46;12.10;99.90
25024;DHT22;13033;50.936;5.334;2024-01-30T09:15:12;12.20;99.90
25024;DHT22;13033;50.936;5.334;2024-01-30T09:17:38;12.00;99.90
25024;DHT22;13033;50.936;5.334;2024-01-30T09:20:04;12.20;99.90
25024;DHT22;13033;50.936;5.334;2024-01-30T09:22:30;12.30;99.90
25024;DHT22;13033;50.936;5.334;2024-01-30T09:24:57;12.10;99.90
25024;DHT22;13033;50.936;5.334;2024-01-30T09:27:22;12.00;99.90
25024;DHT22;13033;50.936;5.334;2024-01-30T09:29:48;12.10;99.90
25024;DHT22;13033;50.936;5.334;2024-01-30T09:32:14;12.20;99.90
25024;DHT22;13033;50.936;5.334;2024-01-30T09:34:39;12.10;99.90
25024;DHT22;13033;50.936;5.334;2024-01-30T09:37:05;12.20;99.90
25024;DHT22;13033;50.936;5.334;2024-01-30T09:39:31;12.20;99.90
25024;DHT22;13033;50.936;5.334;2024-01-30T09:42:36;12.30;99.90
25024;DHT22;13033;50.936;5.334;2024-01-30T09:45:04;12.40;99.90
25024;DHT22;13033;50.936;5.334;2024-01-30T09:47:40;12.40;99.90
25024;DHT22;13033;50.936;5.334;2024-01-30T09:50:09;12.50;99.90
25024;DHT22;13033;50.936;5.334;2024-01-30T09:52:35;12.60;99.90
25024;DHT22;13033;50.936;5.334;2024-01-30T09:55:01;12.70;99.90
25024;DHT22;13033;50.936;5.334;2024-01-30T09:57:27;12.60;99.90
25024;DHT22;13033;50.936;5.334;2024-01-30T09:59:53;12.60;99.90
25024;DHT22;13033;50.936;5.334;2024-01-30T10:02:22;12.70;99.90
25024;DHT22;13033;50.936;5.334;2024-01-30T10:04:49;12.70;99.90
25024;DHT22;13033;50.936;5.334;2024-01-30T10:07:16;12.90;99.90
25024;DHT22;13033;50.936;5.334;2024-01-30T10:09:41;12.90;99.90
25024;DHT22;13033;50.936;5.334;2024-01-30T10:12:08;13.10;99.90
25024;DHT22;13033;50.936;5.334;2024-01-30T10:14:40;13.10;99.90
25024;DHT22;13033;50.936;5.334;2024-01-30T10:17:11;13.00;99.90
25024;DHT22;13033;50.936;5.334;2024-01-30T10:19:41;12.90;99.90
25024;DHT22;13033;50.936;5.334;2024-01-30T10:22:07;12.90;99.90
25024;DHT22;13033;50.936;5.334;2024-01-30T10:24:34;12.90;99.90
25024;DHT22;13033;50.936;5.334;2024-01-30T10:27:00;12.90;99.90
25024;DHT22;13033;50.936;5.334;2024-01-30T10:29:27;12.80;99.90
25024;DHT22;13033;50.936;5.334;2024-01-30T10:32:02;12.80;99.90
25024;DHT22;13033;50.936;5.334;2024-01-30T10:34:28;12.90;99.90
25024;DHT22;13033;50.936;5.334;2024-01-30T10:37:10;12.90;99.90
25024;DHT22;13033;50.936;5.334;2024-01-30T10:39:39;12.80;99.90
25024;DHT22;13033;50.936;5.334;2024-01-30T10:42:07;12.90;99.90
25024;DHT22;13033;50.936;5.334;2024-01-30T10:45:04;13.00;99.90
25024;DHT22;13033;50.936;5.334;2024-01-30T10:47:35;13.10;99.90
25024;DHT22;13033;50.936;5.334;2024-01-30T10:50:04;13.00;99.90
25024;DHT22;13033;50.936;5.334;2024-01-30T10:52:31;12.90;99.90
25024;DHT22;13033;50.936;5.334;2024-01-30T10:54:58;12.90;99.90
25024;DHT22;13033;50.936;5.334;2024-01-30T10:57:25;12.90;99.90
25024;DHT22;13033;50.936;5.334;2024-01-30T10:59:57;12.90;99.90
25024;DHT22;13033;50.936;5.334;2024-01-30T11:02:24;12.80;99.90
25024;DHT22;13033;50.936;5.334;2024-01-30T11:04:56;12.90;99.90
25024;DHT22;13033;50.936;5.334;2024-01-30T11:07:29;13.10;99.90
25024;DHT22;13033;50.936;5.334;2024-01-30T11:12:24;13.00;99.90
25024;DHT22;13033;50.936;5.334;2024-01-30T11:17:29;12.90;99.90
25024;DHT22;13033;50.936;5.334;2024-01-30T11:20:04;13.00;99.90
25024;DHT22;13033;50.936;5.334;2024-01-30T11:22:30;12.90;99.90
25024;DHT22;13033;50.936;5.334;2024-01-30T11:24:56;12.80;99.90
25024;DHT22;13033;50.936;5.334;2024-01-30T11:27:22;12.90;99.90
25024;DHT22;13033;50.936;5.334;2024-01-30T11:29:50;12.90;99.90
25024;DHT22;13033;50.936;5.334;2024-01-30T11:32:22;12.90;99.90
25024;DHT22;13033;50.936;5.334;2024-01-30T11:34:51;12.80;99.90
25024;DHT22;13033;50.936;5.334;2024-01-30T11:37:20;12.80;99.90
25024;DHT22;13033;50.936;5.334;2024-01-30T11:39:48;12.70;99.90
25024;DHT22;13033;50.936;5.334;2024-01-30T11:42:14;12.80;99.90
25024;DHT22;13033;50.936;5.334;2024-01-30T11:44:40;12.70;99.90
25024;DHT22;13033;50.936;5.334;2024-01-30T11:47:06;12.60;99.90
25024;DHT22;13033;50.936;5.334;2024-01-30T11:49:31;12.60;99.90
25024;DHT22;13033;50.936;5.334;2024-01-30T11:51:57;12.50;99.90
25024;DHT22;13033;50.936;5.334;2024-01-30T11:54:23;12.70;99.90
25024;DHT22;13033;50.936;5.334;2024-01-30T11:56:49;12.80;99.90
25024;DHT22;13033;50.936;5.334;2024-01-30T11:59:14;12.70;99.90
25024;DHT22;13033;50.936;5.334;2024-01-30T12:01:40;12.70;99.90
25024;DHT22;13033;50.936;5.334;2024-01-30T12:04:07;12.90;99.90
25024;DHT22;13033;50.936;5.334;2024-01-30T12:06:34;12.90;99.90
25024;DHT22;13033;50.936;5.334;2024-01-30T12:09:01;13.00;99.90
25024;DHT22;13033;50.936;5.334;2024-01-30T12:11:30;12.90;99.90
25024;DHT22;13033;50.936;5.334;2024-01-30T12:13:56;12.90;99.90
25024;DHT22;13033;50.936;5.334;2024-01-30T12:16:22;12.80;99.90
25024;DHT22;13033;50.936;5.334;2024-01-30T12:18:48;12.80;99.90
25024;DHT22;13033;50.936;5.334;2024-01-30T12:21:17;12.70;99.90
25024;DHT22;13033;50.936;5.334;2024-01-30T12:23:44;12.80;99.90
25024;DHT22;13033;50.936;5.334;2024-01-30T12:26:10;13.00;99.90
25024;DHT22;13033;50.936;5.334;2024-01-30T12:28:36;12.90;99.90
25024;DHT22;13033;50.936;5.334;2024-01-30T12:31:04;12.70;99.90
25024;DHT22;13033;50.936;5.334;2024-01-30T12:33:30;12.70;99.90
25024;DHT22;13033;50.936;5.334;2024-01-30T12:35:57;12.80;99.90
25024;DHT22;13033;50.936;5.334;2024-01-30T12:38:27;12.80;99.90
25024;DHT22;13033;50.936;5.334;2024-01-30T12:40:55;12.70;99.90
25024;DHT22;13033;50.936;5.334;2024-01-30T12:43:22;12.70;99.90
25024;DHT22;13033;50.936;5.334;2024-01-30T12:45:49;12.50;99.90
25024;DHT22;13033;50.936;5.334;2024-01-30T12:48:15;12.40;99.90
25024;DHT22;13033;50.936;5.334;2024-01-30T12:50:42;12.40;99.90
25024;DHT22;13033;50.936;5.334;2024-01-30T12:53:08;12.50;99.90
25024;DHT22;13033;50.936;5.334;2024-01-30T12:55:34;12.40;99.90
25024;DHT22;13033;50.936;5.334;2024-01-30T12:58:00;12.40;99.90
25024;DHT22;13033;50.936;5.334;2024-01-30T13:00:26;12.40;99.90
25024;DHT22;13033;50.936;5.334;2024-01-30T13:02:52;12.30;99.90
25024;DHT22;13033;50.936;5.334;2024-01-30T13:05:18;12.50;99.90
25024;DHT22;13033;50.936;5.334;2024-01-30T13:07:43;12.50;99.90
25024;DHT22;13033;50.936;5.334;2024-01-30T13:10:09;12.40;99.90
25024;DHT22;13033;50.936;5.334;2024-01-30T13:12:35;12.50;99.90
25024;DHT22;13033;50.936;5.334;2024-01-30T13:15:01;12.30;99.90
25024;DHT22;13033;50.936;5.334;2024-01-30T13:17:29;12.40;99.90
25024;DHT22;13033;50.936;5.334;2024-01-30T13:19:54;12.40;99.90
25024;DHT22;13033;50.936;5.334;2024-01-30T13:22:20;12.40;99.90
25024;DHT22;13033;50.936;5.334;2024-01-30T13:24:49;12.40;99.90
25024;DHT22;13033;50.936;5.334;2024-01-30T13:27:15;12.60;99.90
25024;DHT22;13033;50.936;5.334;2024-01-30T13:29:41;12.70;99.90
25024;DHT22;13033;50.936;5.334;2024-01-30T13:32:07;12.70;99.90
25024;DHT22;13033;50.936;5.334;2024-01-30T13:34:32;12.70;99.90
25024;DHT22;13033;50.936;5.334;2024-01-30T13:36:59;12.70;99.90
25024;DHT22;13033;50.936;5.334;2024-01-30T13:39:25;12.60;99.90
25024;DHT22;13033;50.936;5.334;2024-01-30T13:41:51;12.50;99.90
25024;DHT22;13033;50.936;5.334;2024-01-30T13:44:17;12.30;99.90
25024;DHT22;13033;50.936;5.334;2024-01-30T13:46:43;12.20;99.90
25024;DHT22;13033;50.936;5.334;2024-01-30T13:49:09;12.30;99.90
25024;DHT22;13033;50.936;5.334;2024-01-30T13:51:35;12.20;99.90
25024;DHT22;13033;50.936;5.334;2024-01-30T13:54:00;12.00;99.90
25024;DHT22;13033;50.936;5.334;2024-01-30T13:56:26;11.90;99.90
25024;DHT22;13033;50.936;5.334;2024-01-30T13:58:52;11.80;99.90
25024;DHT22;13033;50.936;5.334;2024-01-30T14:01:18;11.80;99.90
25024;DHT22;13033;50.936;5.334;2024-01-30T14:03:45;11.80;99.90
25024;DHT22;13033;50.936;5.334;2024-01-30T14:06:11;11.80;99.90
25024;DHT22;13033;50.936;5.334;2024-01-30T14:08:37;11.80;99.90
25024;DHT22;13033;50.936;5.334;2024-01-30T14:11:02;11.70;99.90
25024;DHT22;13033;50.936;5.334;2024-01-30T14:13:29;11.80;99.90
25024;DHT22;13033;50.936;5.334;2024-01-30T14:15:56;11.80;99.90
25024;DHT22;13033;50.936;5.334;2024-01-30T14:18:23;11.80;99.90
25024;DHT22;13033;50.936;5.334;2024-01-30T14:20:51;11.90;99.90
25024;DHT22;13033;50.936;5.334;2024-01-30T14:23:17;12.00;99.90
25024;DHT22;13033;50.936;5.334;2024-01-30T14:25:43;11.90;99.90
25024;DHT22;13033;50.936;5.334;2024-01-30T14:28:09;11.80;99.90
25024;DHT22;13033;50.936;5.334;2024-01-30T14:30:34;11.80;99.90
25024;DHT22;13033;50.936;5.334;2024-01-30T14:33:01;11.90;99.90
25024;DHT22;13033;50.936;5.334;2024-01-30T14:35:27;12.00;99.90
25024;DHT22;13033;50.936;5.334;2024-01-30T14:37:53;12.20;99.90
25024;DHT22;13033;50.936;5.334;2024-01-30T14:40:19;12.20;99.90
25024;DHT22;13033;50.936;5.334;2024-01-30T14:42:45;12.20;99.90
25024;DHT22;13033;50.936;5.334;2024-01-30T14:45:11;12.20;99.90
25024;DHT22;13033;50.936;5.334;2024-01-30T14:47:37;12.10;99.90
25024;DHT22;13033;50.936;5.334;2024-01-30T14:50:03;12.00;99.90
25024;DHT22;13033;50.936;5.334;2024-01-30T14:52:30;11.90;99.90
25024;DHT22;13033;50.936;5.334;2024-01-30T14:54:57;11.90;99.90
25024;DHT22;13033;50.936;5.334;2024-01-30T14:57:24;12.00;99.90
25024;DHT22;13033;50.936;5.334;2024-01-30T14:59:49;11.90;99.90
25024;DHT22;13033;50.936;5.334;2024-01-30T15:02:15;11.80;99.90
25024;DHT22;13033;50.936;5.334;2024-01-30T15:04:41;11.80;99.90
25024;DHT22;13033;50.936;5.334;2024-01-30T15:07:07;11.70;99.90
25024;DHT22;13033;50.936;5.334;2024-01-30T15:09:33;11.70;99.90
25024;DHT22;13033;50.936;5.334;2024-01-30T15:11:58;11.80;99.90
25024;DHT22;13033;50.936;5.334;2024-01-30T15:14:24;11.80;99.90
25024;DHT22;13033;50.936;5.334;2024-01-30T15:16:50;11.80;99.90
25024;DHT22;13033;50.936;5.334;2024-01-30T15:19:16;11.60;99.90
25024;DHT22;13033;50.936;5.334;2024-01-30T15:21:42;11.60;99.90
25024;DHT22;13033;50.936;5.334;2024-01-30T15:24:07;11.60;99.90
25024;DHT22;13033;50.936;5.334;2024-01-30T15:26:33;11.60;99.90
25024;DHT22;13033;50.936;5.334;2024-01-30T15:28:59;11.60;99.90
25024;DHT22;13033;50.936;5.334;2024-01-30T15:31:24;11.60;99.90
25024;DHT22;13033;50.936;5.334;2024-01-30T15:33:50;11.40;99.90